sensor_id;sensor_type;location;lat;lon;timestamp;P1;durP1;ratioP1;P2;durP2;ratioP2
64520;SDS011;50896;46.714;17.322;2022-07-21T00:01:10;6.47;;;2.50;;
64520;SDS011;50896;46.714;17.322;2022-07-21T00:03:37;6.68;;;2.38;;
64520;SDS011;50896;46.714;17.322;2022-07-21T00:06:05;6.18;;;2.70;;
64520;SDS011;50896;46.714;17.322;2022-07-21T00:08:32;5.05;;;2.72;;
64520;SDS011;50896;46.714;17.322;2022-07-21T00:10:59;4.88;;;2.38;;
64520;SDS011;50896;46.714;17.322;2022-07-21T00:13:26;2.60;;;2.08;;
64520;SDS011;50896;46.714;17.322;2022-07-21T00:15:53;6.60;;;2.58;;
64520;SDS011;50896;46.714;17.322;2022-07-21T00:18:21;3.80;;;2.30;;
64520;SDS011;50896;46.714;17.322;2022-07-21T00:20:48;6.88;;;2.47;;
64520;SDS011;50896;46.714;17.322;2022-07-21T00:23:15;3.80;;;2.45;;
64520;SDS011;50896;46.714;17.322;2022-07-21T00:25:42;3.67;;;2.50;;
64520;SDS011;50896;46.714;17.322;2022-07-21T00:28:10;4.35;;;2.22;;
64520;SDS011;50896;46.714;17.322;2022-07-21T00:30:36;3.20;;;2.20;;
64520;SDS011;50896;46.714;17.322;2022-07-21T00:33:03;4.05;;;2.67;;
64520;SDS011;50896;46.714;17.322;2022-07-21T00:35:30;3.35;;;2.20;;
64520;SDS011;50896;46.714;17.322;2022-07-21T00:37:57;4.88;;;2.42;;
64520;SDS011;50896;46.714;17.322;2022-07-21T00:40:24;5.72;;;2.25;;
64520;SDS011;50896;46.714;17.322;2022-07-21T00:42:51;6.30;;;2.40;;
64520;SDS011;50896;46.714;17.322;2022-07-21T00:45:18;6.50;;;2.40;;
64520;SDS011;50896;46.714;17.322;2022-07-21T00:47:44;4.85;;;2.30;;
64520;SDS011;50896;46.714;17.322;2022-07-21T00:50:13;3.13;;;2.20;;
64520;SDS011;50896;46.714;17.322;2022-07-21T00:52:44;4.82;;;2.70;;
64520;SDS011;50896;46.714;17.322;2022-07-21T00:55:15;5.65;;;2.30;;
64520;SDS011;50896;46.714;17.322;2022-07-21T00:57:44;8.45;;;2.30;;
64520;SDS011;50896;46.714;17.322;2022-07-21T01:00:16;5.43;;;2.42;;
64520;SDS011;50896;46.714;17.322;2022-07-21T01:02:48;5.78;;;2.40;;
64520;SDS011;50896;46.714;17.322;2022-07-21T01:05:16;7.45;;;2.95;;
64520;SDS011;50896;46.714;17.322;2022-07-21T01:07:48;5.07;;;2.50;;
64520;SDS011;50896;46.714;17.322;2022-07-21T01:10:17;2.90;;;2.30;;
64520;SDS011;50896;46.714;17.322;2022-07-21T01:12:46;3.15;;;2.35;;
64520;SDS011;50896;46.714;17.322;2022-07-21T01:15:14;2.75;;;2.28;;
64520;SDS011;50896;46.714;17.322;2022-07-21T01:17:43;5.57;;;2.60;;
64520;SDS011;50896;46.714;17.322;2022-07-21T01:20:11;4.90;;;2.42;;
64520;SDS011;50896;46.714;17.322;2022-07-21T01:22:43;4.65;;;2.28;;
64520;SDS011;50896;46.714;17.322;2022-07-21T01:25:11;2.85;;;2.40;;
64520;SDS011;50896;46.714;17.322;2022-07-21T01:27:39;4.13;;;2.38;;
64520;SDS011;50896;46.714;17.322;2022-07-21T01:30:06;4.10;;;2.38;;
64520;SDS011;50896;46.714;17.322;2022-07-21T01:32:36;3.22;;;2.38;;
64520;SDS011;50896;46.714;17.322;2022-07-21T01:35:04;7.20;;;1.92;;
64520;SDS011;50896;46.714;17.322;2022-07-21T01:37:34;5.05;;;2.35;;
64520;SDS011;50896;46.714;17.322;2022-07-21T01:40:05;4.97;;;2.03;;
64520;SDS011;50896;46.714;17.322;2022-07-21T01:42:51;3.78;;;2.08;;
64520;SDS011;50896;46.714;17.322;2022-07-21T01:45:19;6.53;;;2.13;;
64520;SDS011;50896;46.714;17.322;2022-07-21T01:47:47;4.70;;;2.45;;
64520;SDS011;50896;46.714;17.322;2022-07-21T01:50:13;3.63;;;2.22;;
64520;SDS011;50896;46.714;17.322;2022-07-21T01:52:40;4.35;;;2.22;;
64520;SDS011;50896;46.714;17.322;2022-07-21T01:55:07;3.72;;;2.22;;
64520;SDS011;50896;46.714;17.322;2022-07-21T01:57:34;4.35;;;2.33;;
64520;SDS011;50896;46.714;17.322;2022-07-21T02:00:01;4.82;;;2.25;;
64520;SDS011;50896;46.714;17.322;2022-07-21T02:02:32;4.53;;;2.70;;
64520;SDS011;50896;46.714;17.322;2022-07-21T02:04:58;2.38;;;2.17;;
64520;SDS011;50896;46.714;17.322;2022-07-21T02:07:25;5.57;;;2.40;;
64520;SDS011;50896;46.714;17.322;2022-07-21T02:09:52;5.50;;;2.30;;
64520;SDS011;50896;46.714;17.322;2022-07-21T02:12:19;6.32;;;2.50;;
64520;SDS011;50896;46.714;17.322;2022-07-21T02:14:46;8.25;;;2.50;;
64520;SDS011;50896;46.714;17.322;2022-07-21T02:17:12;3.55;;;2.72;;
64520;SDS011;50896;46.714;17.322;2022-07-21T02:19:39;4.00;;;2.50;;
64520;SDS011;50896;46.714;17.322;2022-07-21T02:22:06;5.05;;;2.50;;
64520;SDS011;50896;46.714;17.322;2022-07-21T02:24:33;5.95;;;2.50;;
64520;SDS011;50896;46.714;17.322;2022-07-21T02:27:01;10.27;;;2.65;;
64520;SDS011;50896;46.714;17.322;2022-07-21T02:29:46;6.00;;;2.67;;
64520;SDS011;50896;46.714;17.322;2022-07-21T02:32:13;6.60;;;2.50;;
64520;SDS011;50896;46.714;17.322;2022-07-21T02:34:40;5.43;;;2.83;;
64520;SDS011;50896;46.714;17.322;2022-07-21T02:37:07;7.78;;;2.70;;
64520;SDS011;50896;46.714;17.322;2022-07-21T02:39:34;4.45;;;2.42;;
64520;SDS011;50896;46.714;17.322;2022-07-21T02:42:00;7.93;;;2.63;;
64520;SDS011;50896;46.714;17.322;2022-07-21T02:44:28;9.32;;;2.58;;
64520;SDS011;50896;46.714;17.322;2022-07-21T02:46:56;7.07;;;2.60;;
64520;SDS011;50896;46.714;17.322;2022-07-21T02:49:23;6.07;;;2.90;;
64520;SDS011;50896;46.714;17.322;2022-07-21T02:51:50;4.50;;;2.60;;
64520;SDS011;50896;46.714;17.322;2022-07-21T02:54:16;5.38;;;3.05;;
64520;SDS011;50896;46.714;17.322;2022-07-21T02:56:43;3.47;;;2.50;;
64520;SDS011;50896;46.714;17.322;2022-07-21T02:59:10;7.43;;;2.50;;
64520;SDS011;50896;46.714;17.322;2022-07-21T03:01:37;5.03;;;2.40;;
64520;SDS011;50896;46.714;17.322;2022-07-21T03:04:03;3.72;;;2.40;;
64520;SDS011;50896;46.714;17.322;2022-07-21T03:06:30;3.67;;;2.75;;
64520;SDS011;50896;46.714;17.322;2022-07-21T03:08:57;3.85;;;2.40;;
64520;SDS011;50896;46.714;17.322;2022-07-21T03:11:24;6.85;;;2.70;;
64520;SDS011;50896;46.714;17.322;2022-07-21T03:13:51;4.57;;;2.60;;
64520;SDS011;50896;46.714;17.322;2022-07-21T03:16:18;5.13;;;2.65;;
64520;SDS011;50896;46.714;17.322;2022-07-21T03:18:45;4.82;;;2.72;;
64520;SDS011;50896;46.714;17.322;2022-07-21T03:21:12;5.35;;;2.85;;
64520;SDS011;50896;46.714;17.322;2022-07-21T03:23:39;5.75;;;2.80;;
64520;SDS011;50896;46.714;17.322;2022-07-21T03:26:05;5.60;;;2.50;;
64520;SDS011;50896;46.714;17.322;2022-07-21T03:28:33;5.07;;;2.70;;
64520;SDS011;50896;46.714;17.322;2022-07-21T03:31:00;9.80;;;3.15;;
64520;SDS011;50896;46.714;17.322;2022-07-21T03:33:26;8.50;;;2.92;;
64520;SDS011;50896;46.714;17.322;2022-07-21T03:35:53;9.65;;;3.20;;
64520;SDS011;50896;46.714;17.322;2022-07-21T03:38:20;8.95;;;2.55;;
64520;SDS011;50896;46.714;17.322;2022-07-21T03:40:47;10.30;;;3.42;;
64520;SDS011;50896;46.714;17.322;2022-07-21T03:43:14;7.03;;;3.00;;
64520;SDS011;50896;46.714;17.322;2022-07-21T03:45:40;5.75;;;2.90;;
64520;SDS011;50896;46.714;17.322;2022-07-21T03:48:09;4.68;;;2.72;;
64520;SDS011;50896;46.714;17.322;2022-07-21T03:50:37;7.75;;;3.10;;
64520;SDS011;50896;46.714;17.322;2022-07-21T03:53:06;13.93;;;3.33;;
64520;SDS011;50896;46.714;17.322;2022-07-21T03:55:33;10.38;;;2.78;;
64520;SDS011;50896;46.714;17.322;2022-07-21T03:58:02;8.40;;;2.70;;
64520;SDS011;50896;46.714;17.322;2022-07-21T04:00:32;6.45;;;2.33;;
64520;SDS011;50896;46.714;17.322;2022-07-21T04:03:01;11.20;;;2.90;;
64520;SDS011;50896;46.714;17.322;2022-07-21T04:05:28;4.30;;;2.53;;
64520;SDS011;50896;46.714;17.322;2022-07-21T04:07:55;8.07;;;2.65;;
64520;SDS011;50896;46.714;17.322;2022-07-21T04:10:24;10.82;;;2.63;;
64520;SDS011;50896;46.714;17.322;2022-07-21T04:12:54;5.75;;;2.85;;
64520;SDS011;50896;46.714;17.322;2022-07-21T04:15:21;5.03;;;2.50;;
64520;SDS011;50896;46.714;17.322;2022-07-21T04:17:49;5.20;;;2.92;;
64520;SDS011;50896;46.714;17.322;2022-07-21T04:20:16;5.80;;;3.08;;
64520;SDS011;50896;46.714;17.322;2022-07-21T04:22:44;6.18;;;2.70;;
64520;SDS011;50896;46.714;17.322;2022-07-21T04:25:12;6.00;;;2.70;;
64520;SDS011;50896;46.714;17.322;2022-07-21T04:27:40;5.63;;;2.45;;
64520;SDS011;50896;46.714;17.322;2022-07-21T04:30:08;5.55;;;2.67;;
64520;SDS011;50896;46.714;17.322;2022-07-21T04:32:37;5.57;;;3.08;;
64520;SDS011;50896;46.714;17.322;2022-07-21T04:35:05;8.40;;;2.45;;
64520;SDS011;50896;46.714;17.322;2022-07-21T04:37:32;5.63;;;2.70;;
64520;SDS011;50896;46.714;17.322;2022-07-21T04:40:00;10.57;;;3.10;;
64520;SDS011;50896;46.714;17.322;2022-07-21T04:42:26;7.03;;;2.67;;
64520;SDS011;50896;46.714;17.322;2022-07-21T04:44:53;8.85;;;2.70;;
64520;SDS011;50896;46.714;17.322;2022-07-21T04:47:20;7.40;;;3.15;;
64520;SDS011;50896;46.714;17.322;2022-07-21T04:49:47;9.52;;;3.15;;
64520;SDS011;50896;46.714;17.322;2022-07-21T04:52:14;6.88;;;3.10;;
64520;SDS011;50896;46.714;17.322;2022-07-21T04:54:41;4.68;;;2.75;;
64520;SDS011;50896;46.714;17.322;2022-07-21T04:57:08;9.57;;;3.28;;
64520;SDS011;50896;46.714;17.322;2022-07-21T04:59:35;7.82;;;2.97;;
64520;SDS011;50896;46.714;17.322;2022-07-21T05:02:02;7.15;;;3.05;;
64520;SDS011;50896;46.714;17.322;2022-07-21T05:04:30;3.90;;;2.97;;
64520;SDS011;50896;46.714;17.322;2022-07-21T05:06:57;7.05;;;3.63;;
64520;SDS011;50896;46.714;17.322;2022-07-21T05:09:24;4.80;;;3.03;;
64520;SDS011;50896;46.714;17.322;2022-07-21T05:11:51;7.05;;;3.40;;
64520;SDS011;50896;46.714;17.322;2022-07-21T05:14:18;4.88;;;2.88;;
64520;SDS011;50896;46.714;17.322;2022-07-21T05:16:44;4.65;;;2.25;;
64520;SDS011;50896;46.714;17.322;2022-07-21T05:19:11;7.25;;;3.10;;
64520;SDS011;50896;46.714;17.322;2022-07-21T05:21:39;3.88;;;2.85;;
64520;SDS011;50896;46.714;17.322;2022-07-21T05:24:05;10.20;;;6.45;;
64520;SDS011;50896;46.714;17.322;2022-07-21T05:26:32;10.50;;;5.50;;
64520;SDS011;50896;46.714;17.322;2022-07-21T05:28:59;7.18;;;4.28;;
64520;SDS011;50896;46.714;17.322;2022-07-21T05:31:26;5.93;;;2.70;;
64520;SDS011;50896;46.714;17.322;2022-07-21T05:33:53;4.70;;;2.38;;
64520;SDS011;50896;46.714;17.322;2022-07-21T05:36:19;9.77;;;2.70;;
64520;SDS011;50896;46.714;17.322;2022-07-21T05:38:47;4.07;;;2.80;;
64520;SDS011;50896;46.714;17.322;2022-07-21T05:41:14;8.43;;;3.00;;
64520;SDS011;50896;46.714;17.322;2022-07-21T05:43:40;6.45;;;2.60;;
64520;SDS011;50896;46.714;17.322;2022-07-21T05:46:07;7.25;;;2.90;;
64520;SDS011;50896;46.714;17.322;2022-07-21T05:48:34;6.68;;;3.15;;
64520;SDS011;50896;46.714;17.322;2022-07-21T05:51:01;10.23;;;2.70;;
64520;SDS011;50896;46.714;17.322;2022-07-21T05:53:28;5.07;;;2.60;;
64520;SDS011;50896;46.714;17.322;2022-07-21T05:55:55;4.50;;;2.88;;
64520;SDS011;50896;46.714;17.322;2022-07-21T05:58:22;8.20;;;3.03;;
64520;SDS011;50896;46.714;17.322;2022-07-21T06:00:54;5.18;;;2.63;;
64520;SDS011;50896;46.714;17.322;2022-07-21T06:03:47;5.38;;;2.85;;
64520;SDS011;50896;46.714;17.322;2022-07-21T06:06:16;3.95;;;2.45;;
64520;SDS011;50896;46.714;17.322;2022-07-21T06:08:46;9.15;;;2.70;;
64520;SDS011;50896;46.714;17.322;2022-07-21T06:11:18;2.75;;;2.30;;
64520;SDS011;50896;46.714;17.322;2022-07-21T06:13:46;4.93;;;2.90;;
64520;SDS011;50896;46.714;17.322;2022-07-21T06:16:13;4.85;;;2.40;;
64520;SDS011;50896;46.714;17.322;2022-07-21T06:18:40;6.07;;;2.60;;
64520;SDS011;50896;46.714;17.322;2022-07-21T06:21:07;5.72;;;2.83;;
64520;SDS011;50896;46.714;17.322;2022-07-21T06:23:34;3.58;;;2.50;;
64520;SDS011;50896;46.714;17.322;2022-07-21T06:26:01;7.00;;;2.63;;
64520;SDS011;50896;46.714;17.322;2022-07-21T06:28:28;5.45;;;2.80;;
64520;SDS011;50896;46.714;17.322;2022-07-21T06:30:54;6.50;;;2.65;;
64520;SDS011;50896;46.714;17.322;2022-07-21T06:33:22;7.57;;;2.75;;
64520;SDS011;50896;46.714;17.322;2022-07-21T06:35:49;7.03;;;2.25;;
64520;SDS011;50896;46.714;17.322;2022-07-21T06:38:16;3.67;;;2.40;;
64520;SDS011;50896;46.714;17.322;2022-07-21T06:40:43;5.32;;;2.35;;
64520;SDS011;50896;46.714;17.322;2022-07-21T06:43:11;6.13;;;2.38;;
64520;SDS011;50896;46.714;17.322;2022-07-21T06:45:53;4.57;;;2.50;;
64520;SDS011;50896;46.714;17.322;2022-07-21T06:48:21;5.88;;;2.28;;
64520;SDS011;50896;46.714;17.322;2022-07-21T06:50:51;3.05;;;2.25;;
64520;SDS011;50896;46.714;17.322;2022-07-21T06:53:19;6.13;;;2.10;;
64520;SDS011;50896;46.714;17.322;2022-07-21T06:55:46;2.92;;;2.30;;
64520;SDS011;50896;46.714;17.322;2022-07-21T07:00:44;6.13;;;2.28;;
64520;SDS011;50896;46.714;17.322;2022-07-21T07:03:13;5.85;;;2.72;;
64520;SDS011;50896;46.714;17.322;2022-07-21T07:05:41;5.82;;;2.35;;
64520;SDS011;50896;46.714;17.322;2022-07-21T07:08:10;5.65;;;2.55;;
64520;SDS011;50896;46.714;17.322;2022-07-21T07:10:41;5.70;;;2.40;;
64520;SDS011;50896;46.714;17.322;2022-07-21T07:13:08;4.60;;;2.30;;
64520;SDS011;50896;46.714;17.322;2022-07-21T07:15:55;2.60;;;1.90;;
64520;SDS011;50896;46.714;17.322;2022-07-21T07:18:22;4.95;;;2.33;;
64520;SDS011;50896;46.714;17.322;2022-07-21T07:20:50;7.30;;;2.40;;
64520;SDS011;50896;46.714;17.322;2022-07-21T07:23:18;11.10;;;2.13;;
64520;SDS011;50896;46.714;17.322;2022-07-21T07:25:45;9.15;;;2.22;;
64520;SDS011;50896;46.714;17.322;2022-07-21T07:28:12;6.75;;;2.40;;
64520;SDS011;50896;46.714;17.322;2022-07-21T07:30:38;6.60;;;2.45;;
64520;SDS011;50896;46.714;17.322;2022-07-21T07:33:06;5.10;;;2.35;;
64520;SDS011;50896;46.714;17.322;2022-07-21T07:35:33;3.30;;;2.20;;
64520;SDS011;50896;46.714;17.322;2022-07-21T07:38:00;5.72;;;2.10;;
64520;SDS011;50896;46.714;17.322;2022-07-21T07:40:27;6.63;;;2.60;;
64520;SDS011;50896;46.714;17.322;2022-07-21T07:42:55;4.60;;;2.63;;
64520;SDS011;50896;46.714;17.322;2022-07-21T07:45:21;6.80;;;2.60;;
64520;SDS011;50896;46.714;17.322;2022-07-21T07:47:48;9.35;;;2.63;;
64520;SDS011;50896;46.714;17.322;2022-07-21T07:50:15;3.20;;;2.50;;
64520;SDS011;50896;46.714;17.322;2022-07-21T07:52:43;6.22;;;2.70;;
64520;SDS011;50896;46.714;17.322;2022-07-21T07:55:11;6.45;;;2.60;;
64520;SDS011;50896;46.714;17.322;2022-07-21T07:57:39;6.18;;;2.88;;
64520;SDS011;50896;46.714;17.322;2022-07-21T08:00:10;7.40;;;2.90;;
64520;SDS011;50896;46.714;17.322;2022-07-21T08:02:59;7.70;;;2.80;;
64520;SDS011;50896;46.714;17.322;2022-07-21T08:05:26;3.95;;;2.40;;
64520;SDS011;50896;46.714;17.322;2022-07-21T08:07:52;5.07;;;2.30;;
64520;SDS011;50896;46.714;17.322;2022-07-21T08:10:19;3.83;;;2.40;;
64520;SDS011;50896;46.714;17.322;2022-07-21T08:13:06;5.68;;;2.70;;
64520;SDS011;50896;46.714;17.322;2022-07-21T08:15:35;6.38;;;2.83;;
64520;SDS011;50896;46.714;17.322;2022-07-21T08:18:03;6.43;;;2.85;;
64520;SDS011;50896;46.714;17.322;2022-07-21T08:20:31;6.53;;;2.72;;
64520;SDS011;50896;46.714;17.322;2022-07-21T08:22:59;3.60;;;2.38;;
64520;SDS011;50896;46.714;17.322;2022-07-21T08:25:26;6.43;;;2.78;;
64520;SDS011;50896;46.714;17.322;2022-07-21T08:27:53;6.47;;;2.30;;
64520;SDS011;50896;46.714;17.322;2022-07-21T08:30:20;7.35;;;2.63;;
64520;SDS011;50896;46.714;17.322;2022-07-21T08:32:54;3.50;;;2.28;;
64520;SDS011;50896;46.714;17.322;2022-07-21T08:35:21;8.00;;;2.80;;
64520;SDS011;50896;46.714;17.322;2022-07-21T08:37:55;6.20;;;2.58;;
64520;SDS011;50896;46.714;17.322;2022-07-21T08:40:27;10.35;;;2.92;;
64520;SDS011;50896;46.714;17.322;2022-07-21T08:42:56;4.65;;;2.03;;
64520;SDS011;50896;46.714;17.322;2022-07-21T08:45:22;3.92;;;2.20;;
64520;SDS011;50896;46.714;17.322;2022-07-21T08:47:51;6.38;;;1.90;;
64520;SDS011;50896;46.714;17.322;2022-07-21T08:52:48;6.97;;;2.30;;
64520;SDS011;50896;46.714;17.322;2022-07-21T08:55:18;4.10;;;2.20;;
64520;SDS011;50896;46.714;17.322;2022-07-21T08:57:45;6.90;;;2.10;;
64520;SDS011;50896;46.714;17.322;2022-07-21T09:00:13;7.53;;;1.95;;
64520;SDS011;50896;46.714;17.322;2022-07-21T09:02:40;6.45;;;2.45;;
64520;SDS011;50896;46.714;17.322;2022-07-21T09:05:08;7.57;;;2.83;;
64520;SDS011;50896;46.714;17.322;2022-07-21T09:07:46;6.97;;;2.33;;
64520;SDS011;50896;46.714;17.322;2022-07-21T09:10:24;10.90;;;2.65;;
64520;SDS011;50896;46.714;17.322;2022-07-21T09:12:54;6.15;;;1.95;;
64520;SDS011;50896;46.714;17.322;2022-07-21T09:15:24;4.85;;;1.83;;
64520;SDS011;50896;46.714;17.322;2022-07-21T09:20:46;4.70;;;1.70;;
64520;SDS011;50896;46.714;17.322;2022-07-21T09:23:18;4.60;;;1.70;;
64520;SDS011;50896;46.714;17.322;2022-07-21T09:25:48;3.75;;;1.30;;
64520;SDS011;50896;46.714;17.322;2022-07-21T09:28:18;2.92;;;1.60;;
64520;SDS011;50896;46.714;17.322;2022-07-21T09:30:50;4.80;;;1.65;;
64520;SDS011;50896;46.714;17.322;2022-07-21T09:38:35;5.78;;;1.65;;
64520;SDS011;50896;46.714;17.322;2022-07-21T09:41:14;6.18;;;1.63;;
64520;SDS011;50896;46.714;17.322;2022-07-21T09:43:43;8.68;;;1.60;;
64520;SDS011;50896;46.714;17.322;2022-07-21T09:46:22;3.33;;;1.50;;
64520;SDS011;50896;46.714;17.322;2022-07-21T09:48:51;2.38;;;1.35;;
64520;SDS011;50896;46.714;17.322;2022-07-21T09:51:40;7.50;;;1.30;;
64520;SDS011;50896;46.714;17.322;2022-07-21T09:54:10;4.45;;;1.30;;
64520;SDS011;50896;46.714;17.322;2022-07-21T09:56:43;4.10;;;1.60;;
64520;SDS011;50896;46.714;17.322;2022-07-21T09:59:12;3.65;;;1.23;;
64520;SDS011;50896;46.714;17.322;2022-07-21T10:01:40;3.63;;;1.48;;
64520;SDS011;50896;46.714;17.322;2022-07-21T10:04:07;3.78;;;1.30;;
64520;SDS011;50896;46.714;17.322;2022-07-21T10:06:35;4.68;;;1.58;;
64520;SDS011;50896;46.714;17.322;2022-07-21T10:09:05;3.30;;;1.27;;
64520;SDS011;50896;46.714;17.322;2022-07-21T10:11:38;3.35;;;1.80;;
64520;SDS011;50896;46.714;17.322;2022-07-21T10:14:08;5.45;;;1.63;;
64520;SDS011;50896;46.714;17.322;2022-07-21T10:16:38;9.25;;;1.80;;
64520;SDS011;50896;46.714;17.322;2022-07-21T10:19:20;4.47;;;1.30;;
64520;SDS011;50896;46.714;17.322;2022-07-21T10:24:41;4.68;;;1.60;;
64520;SDS011;50896;46.714;17.322;2022-07-21T10:27:10;1.52;;;1.10;;
64520;SDS011;50896;46.714;17.322;2022-07-21T10:29:48;2.33;;;1.50;;
64520;SDS011;50896;46.714;17.322;2022-07-21T10:34:57;2.13;;;1.35;;
64520;SDS011;50896;46.714;17.322;2022-07-21T10:45:39;4.57;;;1.30;;
64520;SDS011;50896;46.714;17.322;2022-07-21T10:48:08;3.88;;;1.35;;
64520;SDS011;50896;46.714;17.322;2022-07-21T10:50:57;4.07;;;1.40;;
64520;SDS011;50896;46.714;17.322;2022-07-21T10:53:25;2.72;;;1.40;;
64520;SDS011;50896;46.714;17.322;2022-07-21T10:55:52;3.75;;;1.45;;
64520;SDS011;50896;46.714;17.322;2022-07-21T10:58:25;2.83;;;1.30;;
64520;SDS011;50896;46.714;17.322;2022-07-21T11:00:58;6.00;;;1.50;;
64520;SDS011;50896;46.714;17.322;2022-07-21T11:03:35;2.90;;;1.17;;
64520;SDS011;50896;46.714;17.322;2022-07-21T11:08:34;4.60;;;1.20;;
64520;SDS011;50896;46.714;17.322;2022-07-21T11:11:15;3.28;;;1.60;;
64520;SDS011;50896;46.714;17.322;2022-07-21T11:24:33;1.58;;;1.42;;
64520;SDS011;50896;46.714;17.322;2022-07-21T11:27:03;2.88;;;1.77;;
64520;SDS011;50896;46.714;17.322;2022-07-21T11:29:33;3.13;;;1.58;;
64520;SDS011;50896;46.714;17.322;2022-07-21T11:32:02;2.55;;;1.48;;
64520;SDS011;50896;46.714;17.322;2022-07-21T11:34:43;5.20;;;2.05;;
64520;SDS011;50896;46.714;17.322;2022-07-21T11:37:19;10.82;;;1.70;;
64520;SDS011;50896;46.714;17.322;2022-07-21T11:40:03;10.95;;;1.92;;
64520;SDS011;50896;46.714;17.322;2022-07-21T11:42:33;5.22;;;1.60;;
64520;SDS011;50896;46.714;17.322;2022-07-21T11:45:00;7.03;;;1.65;;
64520;SDS011;50896;46.714;17.322;2022-07-21T11:47:28;4.18;;;1.40;;
64520;SDS011;50896;46.714;17.322;2022-07-21T11:49:56;2.08;;;1.20;;
64520;SDS011;50896;46.714;17.322;2022-07-21T11:54:53;9.10;;;1.67;;
64520;SDS011;50896;46.714;17.322;2022-07-21T11:57:22;4.55;;;1.63;;
64520;SDS011;50896;46.714;17.322;2022-07-21T11:59:49;5.55;;;1.52;;
64520;SDS011;50896;46.714;17.322;2022-07-21T12:02:17;4.57;;;1.70;;
64520;SDS011;50896;46.714;17.322;2022-07-21T12:09:59;2.80;;;1.23;;
64520;SDS011;50896;46.714;17.322;2022-07-21T12:14:56;8.52;;;1.88;;
64520;SDS011;50896;46.714;17.322;2022-07-21T12:17:35;4.15;;;1.30;;
64520;SDS011;50896;46.714;17.322;2022-07-21T12:20:05;2.95;;;1.40;;
64520;SDS011;50896;46.714;17.322;2022-07-21T12:22:36;4.68;;;1.33;;
64520;SDS011;50896;46.714;17.322;2022-07-21T12:25:13;5.88;;;1.50;;
64520;SDS011;50896;46.714;17.322;2022-07-21T12:27:42;6.22;;;1.75;;
64520;SDS011;50896;46.714;17.322;2022-07-21T12:33:09;3.75;;;1.48;;
64520;SDS011;50896;46.714;17.322;2022-07-21T12:35:41;4.63;;;1.40;;
64520;SDS011;50896;46.714;17.322;2022-07-21T12:38:10;4.82;;;1.40;;
64520;SDS011;50896;46.714;17.322;2022-07-21T12:40:44;6.40;;;1.52;;
64520;SDS011;50896;46.714;17.322;2022-07-21T12:43:33;6.40;;;1.40;;
64520;SDS011;50896;46.714;17.322;2022-07-21T12:46:02;4.35;;;1.50;;
64520;SDS011;50896;46.714;17.322;2022-07-21T12:48:35;6.45;;;1.48;;
64520;SDS011;50896;46.714;17.322;2022-07-21T12:53:34;3.78;;;1.20;;
64520;SDS011;50896;46.714;17.322;2022-07-21T12:56:07;4.50;;;1.42;;
64520;SDS011;50896;46.714;17.322;2022-07-21T12:58:35;4.35;;;1.15;;
64520;SDS011;50896;46.714;17.322;2022-07-21T13:01:03;6.47;;;1.55;;
64520;SDS011;50896;46.714;17.322;2022-07-21T13:03:30;5.57;;;1.40;;
64520;SDS011;50896;46.714;17.322;2022-07-21T13:05:59;4.32;;;1.15;;
64520;SDS011;50896;46.714;17.322;2022-07-21T13:08:27;2.72;;;1.35;;
64520;SDS011;50896;46.714;17.322;2022-07-21T13:10:54;3.63;;;1.40;;
64520;SDS011;50896;46.714;17.322;2022-07-21T13:13:21;6.22;;;1.45;;
64520;SDS011;50896;46.714;17.322;2022-07-21T13:15:48;3.78;;;1.70;;
64520;SDS011;50896;46.714;17.322;2022-07-21T13:18:15;2.95;;;1.30;;
64520;SDS011;50896;46.714;17.322;2022-07-21T13:20:42;6.88;;;1.85;;
64520;SDS011;50896;46.714;17.322;2022-07-21T13:23:09;3.17;;;1.40;;
64520;SDS011;50896;46.714;17.322;2022-07-21T13:25:37;4.47;;;1.40;;
64520;SDS011;50896;46.714;17.322;2022-07-21T13:28:04;3.13;;;1.50;;
64520;SDS011;50896;46.714;17.322;2022-07-21T13:30:31;3.75;;;1.52;;
64520;SDS011;50896;46.714;17.322;2022-07-21T13:33:03;4.38;;;1.50;;
64520;SDS011;50896;46.714;17.322;2022-07-21T13:35:30;4.75;;;1.60;;
64520;SDS011;50896;46.714;17.322;2022-07-21T13:37:57;6.32;;;1.42;;
64520;SDS011;50896;46.714;17.322;2022-07-21T13:40:25;2.05;;;1.38;;
64520;SDS011;50896;46.714;17.322;2022-07-21T13:43:13;3.50;;;1.30;;
64520;SDS011;50896;46.714;17.322;2022-07-21T13:46:01;7.00;;;1.60;;
64520;SDS011;50896;46.714;17.322;2022-07-21T13:48:28;6.32;;;1.63;;
64520;SDS011;50896;46.714;17.322;2022-07-21T13:50:55;3.65;;;1.60;;
64520;SDS011;50896;46.714;17.322;2022-07-21T13:53:21;4.10;;;1.50;;
64520;SDS011;50896;46.714;17.322;2022-07-21T13:55:48;8.65;;;1.67;;
64520;SDS011;50896;46.714;17.322;2022-07-21T13:58:17;5.05;;;1.60;;
64520;SDS011;50896;46.714;17.322;2022-07-21T14:00:44;2.20;;;1.40;;
64520;SDS011;50896;46.714;17.322;2022-07-21T14:03:10;5.47;;;1.83;;
64520;SDS011;50896;46.714;17.322;2022-07-21T14:05:37;7.13;;;1.60;;
64520;SDS011;50896;46.714;17.322;2022-07-21T14:08:04;4.78;;;1.77;;
64520;SDS011;50896;46.714;17.322;2022-07-21T14:10:31;6.78;;;1.20;;
64520;SDS011;50896;46.714;17.322;2022-07-21T14:13:00;4.22;;;1.65;;
64520;SDS011;50896;46.714;17.322;2022-07-21T14:15:27;4.10;;;1.70;;
64520;SDS011;50896;46.714;17.322;2022-07-21T14:17:54;4.05;;;1.30;;
64520;SDS011;50896;46.714;17.322;2022-07-21T14:20:23;2.60;;;1.27;;
64520;SDS011;50896;46.714;17.322;2022-07-21T14:22:52;5.45;;;2.00;;
64520;SDS011;50896;46.714;17.322;2022-07-21T14:25:20;2.20;;;1.40;;
64520;SDS011;50896;46.714;17.322;2022-07-21T14:27:53;3.55;;;1.73;;
64520;SDS011;50896;46.714;17.322;2022-07-21T14:30:22;3.53;;;1.50;;
64520;SDS011;50896;46.714;17.322;2022-07-21T14:32:50;5.03;;;1.48;;
64520;SDS011;50896;46.714;17.322;2022-07-21T14:35:17;5.10;;;1.50;;
64520;SDS011;50896;46.714;17.322;2022-07-21T14:40:16;3.05;;;1.65;;
64520;SDS011;50896;46.714;17.322;2022-07-21T14:42:44;8.07;;;1.63;;
64520;SDS011;50896;46.714;17.322;2022-07-21T14:45:12;4.90;;;1.63;;
64520;SDS011;50896;46.714;17.322;2022-07-21T14:47:47;4.68;;;1.60;;
64520;SDS011;50896;46.714;17.322;2022-07-21T14:50:14;2.55;;;1.40;;
64520;SDS011;50896;46.714;17.322;2022-07-21T14:52:49;3.72;;;1.40;;
64520;SDS011;50896;46.714;17.322;2022-07-21T14:55:16;4.00;;;1.27;;
64520;SDS011;50896;46.714;17.322;2022-07-21T14:57:44;2.28;;;1.40;;
64520;SDS011;50896;46.714;17.322;2022-07-21T15:00:11;2.13;;;1.45;;
64520;SDS011;50896;46.714;17.322;2022-07-21T15:02:38;6.15;;;1.45;;
64520;SDS011;50896;46.714;17.322;2022-07-21T15:05:05;7.68;;;1.50;;
64520;SDS011;50896;46.714;17.322;2022-07-21T15:07:32;6.15;;;2.22;;
64520;SDS011;50896;46.714;17.322;2022-07-21T15:09:59;3.33;;;1.90;;
64520;SDS011;50896;46.714;17.322;2022-07-21T15:12:26;5.25;;;1.80;;
64520;SDS011;50896;46.714;17.322;2022-07-21T15:14:53;3.13;;;1.70;;
64520;SDS011;50896;46.714;17.322;2022-07-21T15:17:20;8.45;;;2.08;;
64520;SDS011;50896;46.714;17.322;2022-07-21T15:19:46;4.35;;;1.50;;
64520;SDS011;50896;46.714;17.322;2022-07-21T15:22:13;3.10;;;1.77;;
64520;SDS011;50896;46.714;17.322;2022-07-21T15:24:40;3.05;;;1.50;;
64520;SDS011;50896;46.714;17.322;2022-07-21T15:27:07;3.55;;;1.38;;
64520;SDS011;50896;46.714;17.322;2022-07-21T15:29:34;7.22;;;1.75;;
64520;SDS011;50896;46.714;17.322;2022-07-21T15:32:01;6.20;;;1.60;;
64520;SDS011;50896;46.714;17.322;2022-07-21T15:34:28;4.13;;;1.58;;
64520;SDS011;50896;46.714;17.322;2022-07-21T15:36:55;6.28;;;1.70;;
64520;SDS011;50896;46.714;17.322;2022-07-21T15:39:22;8.32;;;1.48;;
64520;SDS011;50896;46.714;17.322;2022-07-21T15:41:50;6.00;;;1.97;;